Terminal Aerodrome Forecast
Issued by NWS

Home | Current Version | Previous Version | Text Only | Print | Product List | Glossary On
Versions: 1 2 3 4 5 6 7 8 9 10 11 12 13 14 15 16 17 18 19
000
FTUS43 KAPX 220500
TAFMBL
TAF
KMBL 220523Z 2206/2306 00000KT P6SM FEW024 BKN080
     FM220900 00000KT 4SM BR BKN024
     FM221400 VRB03KT P6SM BKN040
      AMD LTD TO CLD VIS AND WIND=

USA.gov is the U.S. government's official web portal to all federal, state and local government web resources and services.